sensor_id;sensor_type;location;lat;lon;timestamp;temperature;humidity
1021;DHT22;499;42.648;23.270;2023-03-13T00:01:22;0.40;24.20
1021;DHT22;499;42.648;23.270;2023-03-13T00:03:49;0.30;24.20
1021;DHT22;499;42.648;23.270;2023-03-13T00:06:16;0.30;24.40
1021;DHT22;499;42.648;23.270;2023-03-13T00:08:43;0.30;24.20
1021;DHT22;499;42.648;23.270;2023-03-13T00:11:12;0.30;24.40
1021;DHT22;499;42.648;23.270;2023-03-13T00:13:41;0.40;24.00
1021;DHT22;499;42.648;23.270;2023-03-13T00:16:11;0.70;24.20
1021;DHT22;499;42.648;23.270;2023-03-13T00:18:38;0.40;23.80
1021;DHT22;499;42.648;23.270;2023-03-13T00:21:10;0.60;24.30
1021;DHT22;499;42.648;23.270;2023-03-13T00:23:40;0.20;24.80
1021;DHT22;499;42.648;23.270;2023-03-13T00:26:09;0.30;25.10
1021;DHT22;499;42.648;23.270;2023-03-13T00:28:42;0.20;25.50
1021;DHT22;499;42.648;23.270;2023-03-13T00:31:11;0.30;25.40
1021;DHT22;499;42.648;23.270;2023-03-13T00:33:41;0.20;25.30
1021;DHT22;499;42.648;23.270;2023-03-13T00:36:10;0.40;25.60
1021;DHT22;499;42.648;23.270;2023-03-13T00:38:40;0.30;25.50
1021;DHT22;499;42.648;23.270;2023-03-13T00:41:09;0.10;25.40
1021;DHT22;499;42.648;23.270;2023-03-13T00:43:43;0.00;25.30
1021;DHT22;499;42.648;23.270;2023-03-13T00:46:12;0.10;25.40
1021;DHT22;499;42.648;23.270;2023-03-13T00:48:39;0.20;25.50
1021;DHT22;499;42.648;23.270;2023-03-13T00:51:07;0.10;25.40
1021;DHT22;499;42.648;23.270;2023-03-13T00:53:34;0.10;25.40
1021;DHT22;499;42.648;23.270;2023-03-13T00:56:04;0.00;25.30
1021;DHT22;499;42.648;23.270;2023-03-13T00:58:33;0.00;25.40
1021;DHT22;499;42.648;23.270;2023-03-13T01:01:07;0.00;25.40
1021;DHT22;499;42.648;23.270;2023-03-13T01:03:35;-0.10;25.30
1021;DHT22;499;42.648;23.270;2023-03-13T01:06:05;0.10;25.40
1021;DHT22;499;42.648;23.270;2023-03-13T01:08:32;-0.10;25.30
1021;DHT22;499;42.648;23.270;2023-03-13T01:11:00;0.00;25.40
1021;DHT22;499;42.648;23.270;2023-03-13T01:13:28;0.00;25.10
1021;DHT22;499;42.648;23.270;2023-03-13T01:16:00;0.00;24.80
1021;DHT22;499;42.648;23.270;2023-03-13T01:18:31;0.00;24.40
1021;DHT22;499;42.648;23.270;2023-03-13T01:20:58;0.00;24.30
1021;DHT22;499;42.648;23.270;2023-03-13T01:23:26;0.10;24.50
1021;DHT22;499;42.648;23.270;2023-03-13T01:25:56;0.30;24.80
1021;DHT22;499;42.648;23.270;2023-03-13T01:28:24;0.00;24.80
1021;DHT22;499;42.648;23.270;2023-03-13T01:30:51;0.10;25.40
1021;DHT22;499;42.648;23.270;2023-03-13T01:33:18;0.30;24.80
1021;DHT22;499;42.648;23.270;2023-03-13T01:35:47;-0.10;24.70
1021;DHT22;499;42.648;23.270;2023-03-13T01:38:14;0.20;24.70
1021;DHT22;499;42.648;23.270;2023-03-13T01:40:43;-0.10;24.80
1021;DHT22;499;42.648;23.270;2023-03-13T01:43:18;-0.20;24.10
1021;DHT22;499;42.648;23.270;2023-03-13T01:45:58;-0.30;24.70
1021;DHT22;499;42.648;23.270;2023-03-13T01:48:39;-0.20;25.20
1021;DHT22;499;42.648;23.270;2023-03-13T01:51:12;0.10;24.70
1021;DHT22;499;42.648;23.270;2023-03-13T01:53:42;-0.10;25.30
1021;DHT22;499;42.648;23.270;2023-03-13T01:56:13;-0.30;24.40
1021;DHT22;499;42.648;23.270;2023-03-13T01:58:43;-0.30;24.70
1021;DHT22;499;42.648;23.270;2023-03-13T02:01:16;-0.30;25.10
1021;DHT22;499;42.648;23.270;2023-03-13T02:03:46;-0.30;24.80
1021;DHT22;499;42.648;23.270;2023-03-13T02:06:16;-0.30;25.10
1021;DHT22;499;42.648;23.270;2023-03-13T02:08:48;0.00;25.30
1021;DHT22;499;42.648;23.270;2023-03-13T02:11:24;-0.10;25.30
1021;DHT22;499;42.648;23.270;2023-03-13T02:13:55;-0.30;25.40
1021;DHT22;499;42.648;23.270;2023-03-13T02:16:24;-0.30;25.30
1021;DHT22;499;42.648;23.270;2023-03-13T02:18:51;-0.30;25.70
1021;DHT22;499;42.648;23.270;2023-03-13T02:21:36;-0.30;26.10
1021;DHT22;499;42.648;23.270;2023-03-13T02:24:12;-0.30;26.30
1021;DHT22;499;42.648;23.270;2023-03-13T02:26:41;-0.40;26.50
1021;DHT22;499;42.648;23.270;2023-03-13T02:29:09;-0.50;26.50
1021;DHT22;499;42.648;23.270;2023-03-13T02:31:45;-0.50;27.00
1021;DHT22;499;42.648;23.270;2023-03-13T02:34:14;-0.50;27.10
1021;DHT22;499;42.648;23.270;2023-03-13T02:36:44;-0.40;27.30
1021;DHT22;499;42.648;23.270;2023-03-13T02:39:13;-0.50;26.40
1021;DHT22;499;42.648;23.270;2023-03-13T02:41:48;-0.50;26.60
1021;DHT22;499;42.648;23.270;2023-03-13T02:44:19;-0.30;27.00
1021;DHT22;499;42.648;23.270;2023-03-13T02:46:47;-0.40;27.20
1021;DHT22;499;42.648;23.270;2023-03-13T02:49:21;-0.60;27.40
1021;DHT22;499;42.648;23.270;2023-03-13T02:51:49;-0.30;27.80
1021;DHT22;499;42.648;23.270;2023-03-13T02:54:21;-0.60;27.60
1021;DHT22;499;42.648;23.270;2023-03-13T02:56:54;-0.60;27.70
1021;DHT22;499;42.648;23.270;2023-03-13T02:59:21;-0.30;27.90
1021;DHT22;499;42.648;23.270;2023-03-13T03:01:48;-0.50;28.10
1021;DHT22;499;42.648;23.270;2023-03-13T03:04:19;-0.80;28.10
1021;DHT22;499;42.648;23.270;2023-03-13T03:06:47;-0.50;28.20
1021;DHT22;499;42.648;23.270;2023-03-13T03:09:14;-0.80;27.90
1021;DHT22;499;42.648;23.270;2023-03-13T03:11:44;-0.70;27.80
1021;DHT22;499;42.648;23.270;2023-03-13T03:14:13;-0.40;27.80
1021;DHT22;499;42.648;23.270;2023-03-13T03:16:41;-0.70;27.50
1021;DHT22;499;42.648;23.270;2023-03-13T03:19:08;-0.60;28.20
1021;DHT22;499;42.648;23.270;2023-03-13T03:21:36;-0.80;27.70
1021;DHT22;499;42.648;23.270;2023-03-13T03:24:03;-0.50;28.00
1021;DHT22;499;42.648;23.270;2023-03-13T03:26:31;-0.80;28.20
1021;DHT22;499;42.648;23.270;2023-03-13T03:28:58;-0.80;28.50
1021;DHT22;499;42.648;23.270;2023-03-13T03:31:27;-0.90;28.50
1021;DHT22;499;42.648;23.270;2023-03-13T03:33:54;-0.90;28.90
1021;DHT22;499;42.648;23.270;2023-03-13T03:36:21;-0.90;28.80
1021;DHT22;499;42.648;23.270;2023-03-13T03:38:49;-0.90;29.10
1021;DHT22;499;42.648;23.270;2023-03-13T03:41:18;-0.50;28.70
1021;DHT22;499;42.648;23.270;2023-03-13T03:43:45;-0.60;28.70
1021;DHT22;499;42.648;23.270;2023-03-13T03:46:15;-0.70;29.10
1021;DHT22;499;42.648;23.270;2023-03-13T03:48:44;-0.80;29.10
1021;DHT22;499;42.648;23.270;2023-03-13T03:51:11;-0.90;29.10
1021;DHT22;499;42.648;23.270;2023-03-13T03:53:38;-1.10;29.20
1021;DHT22;499;42.648;23.270;2023-03-13T03:56:05;-0.90;29.90
1021;DHT22;499;42.648;23.270;2023-03-13T03:58:32;-0.80;29.60
1021;DHT22;499;42.648;23.270;2023-03-13T04:01:00;-0.80;29.40
1021;DHT22;499;42.648;23.270;2023-03-13T04:03:27;-0.90;29.70
1021;DHT22;499;42.648;23.270;2023-03-13T04:05:55;-0.80;29.90
1021;DHT22;499;42.648;23.270;2023-03-13T04:08:23;-0.90;30.10
1021;DHT22;499;42.648;23.270;2023-03-13T04:10:50;-0.60;30.00
1021;DHT22;499;42.648;23.270;2023-03-13T04:13:17;-0.60;30.90
1021;DHT22;499;42.648;23.270;2023-03-13T04:15:47;-1.00;30.60
1021;DHT22;499;42.648;23.270;2023-03-13T04:18:14;-1.00;30.60
1021;DHT22;499;42.648;23.270;2023-03-13T04:20:42;-1.00;30.10
1021;DHT22;499;42.648;23.270;2023-03-13T04:23:10;-0.80;30.30
1021;DHT22;499;42.648;23.270;2023-03-13T04:25:37;-1.00;31.00
1021;DHT22;499;42.648;23.270;2023-03-13T04:28:07;-1.00;30.10
1021;DHT22;499;42.648;23.270;2023-03-13T04:30:34;-1.10;32.00
1021;DHT22;499;42.648;23.270;2023-03-13T04:33:02;-1.00;32.60
1021;DHT22;499;42.648;23.270;2023-03-13T04:35:29;-1.40;32.80
1021;DHT22;499;42.648;23.270;2023-03-13T04:37:57;-1.30;32.90
1021;DHT22;499;42.648;23.270;2023-03-13T04:40:27;-1.40;33.50
1021;DHT22;499;42.648;23.270;2023-03-13T04:42:56;-1.20;33.90
1021;DHT22;499;42.648;23.270;2023-03-13T04:45:23;-1.10;34.10
1021;DHT22;499;42.648;23.270;2023-03-13T04:47:51;-1.20;33.20
1021;DHT22;499;42.648;23.270;2023-03-13T04:50:18;-1.10;32.40
1021;DHT22;499;42.648;23.270;2023-03-13T04:52:45;-1.10;32.40
1021;DHT22;499;42.648;23.270;2023-03-13T04:55:12;-1.20;32.40
1021;DHT22;499;42.648;23.270;2023-03-13T04:57:40;-1.20;32.60
1021;DHT22;499;42.648;23.270;2023-03-13T05:00:09;-1.30;33.60
1021;DHT22;499;42.648;23.270;2023-03-13T05:02:36;-1.20;33.70
1021;DHT22;499;42.648;23.270;2023-03-13T05:05:04;-1.10;32.50
1021;DHT22;499;42.648;23.270;2023-03-13T05:07:33;-1.00;32.50
1021;DHT22;499;42.648;23.270;2023-03-13T05:10:00;-1.00;32.50
1021;DHT22;499;42.648;23.270;2023-03-13T05:12:27;-0.50;32.90
1021;DHT22;499;42.648;23.270;2023-03-13T05:14:58;-0.80;32.70
1021;DHT22;499;42.648;23.270;2023-03-13T05:17:25;-0.80;32.70
1021;DHT22;499;42.648;23.270;2023-03-13T05:19:52;-0.90;31.80
1021;DHT22;499;42.648;23.270;2023-03-13T05:22:19;-0.60;31.30
1021;DHT22;499;42.648;23.270;2023-03-13T05:24:49;-0.60;30.60
1021;DHT22;499;42.648;23.270;2023-03-13T05:27:16;-0.50;30.70
1021;DHT22;499;42.648;23.270;2023-03-13T05:29:43;-0.40;30.20
1021;DHT22;499;42.648;23.270;2023-03-13T05:32:11;-0.30;30.20
1021;DHT22;499;42.648;23.270;2023-03-13T05:34:38;-0.10;30.60
1021;DHT22;499;42.648;23.270;2023-03-13T05:37:05;0.10;29.40
1021;DHT22;499;42.648;23.270;2023-03-13T05:39:32;0.20;29.10
1021;DHT22;499;42.648;23.270;2023-03-13T05:41:59;0.10;29.10
1021;DHT22;499;42.648;23.270;2023-03-13T05:44:26;0.30;29.10
1021;DHT22;499;42.648;23.270;2023-03-13T05:46:53;0.20;28.50
1021;DHT22;499;42.648;23.270;2023-03-13T05:49:21;0.30;28.60
1021;DHT22;499;42.648;23.270;2023-03-13T05:51:49;0.40;28.90
1021;DHT22;499;42.648;23.270;2023-03-13T05:54:18;0.40;28.40
1021;DHT22;499;42.648;23.270;2023-03-13T05:56:45;0.40;28.20
1021;DHT22;499;42.648;23.270;2023-03-13T05:59:15;0.80;28.60
1021;DHT22;499;42.648;23.270;2023-03-13T06:01:45;0.40;28.40
1021;DHT22;499;42.648;23.270;2023-03-13T06:04:12;0.60;28.00
1021;DHT22;499;42.648;23.270;2023-03-13T06:06:40;0.60;28.00
1021;DHT22;499;42.648;23.270;2023-03-13T06:09:08;0.40;27.40
1021;DHT22;499;42.648;23.270;2023-03-13T06:11:36;0.60;27.60
1021;DHT22;499;42.648;23.270;2023-03-13T06:14:03;0.60;26.40
1021;DHT22;499;42.648;23.270;2023-03-13T06:16:30;0.90;25.90
1021;DHT22;499;42.648;23.270;2023-03-13T06:18:57;0.80;24.90
1021;DHT22;499;42.648;23.270;2023-03-13T06:21:25;0.80;24.70
1021;DHT22;499;42.648;23.270;2023-03-13T06:23:54;0.70;24.10
1021;DHT22;499;42.648;23.270;2023-03-13T06:26:21;0.90;24.20
1021;DHT22;499;42.648;23.270;2023-03-13T06:28:49;0.90;23.10
1021;DHT22;499;42.648;23.270;2023-03-13T06:31:16;0.90;23.40
1021;DHT22;499;42.648;23.270;2023-03-13T06:33:43;0.80;23.20
1021;DHT22;499;42.648;23.270;2023-03-13T06:36:11;1.00;23.30
1021;DHT22;499;42.648;23.270;2023-03-13T06:38:38;0.90;23.70
1021;DHT22;499;42.648;23.270;2023-03-13T06:41:10;0.90;24.70
1021;DHT22;499;42.648;23.270;2023-03-13T06:43:37;0.90;24.20
1021;DHT22;499;42.648;23.270;2023-03-13T06:46:05;1.10;24.40
1021;DHT22;499;42.648;23.270;2023-03-13T06:48:33;1.30;23.90
1021;DHT22;499;42.648;23.270;2023-03-13T06:51:00;1.70;22.70
1021;DHT22;499;42.648;23.270;2023-03-13T06:53:27;1.80;22.70
1021;DHT22;499;42.648;23.270;2023-03-13T06:55:54;1.50;22.50
1021;DHT22;499;42.648;23.270;2023-03-13T06:58:23;1.40;22.50
1021;DHT22;499;42.648;23.270;2023-03-13T07:00:52;1.40;22.50
1021;DHT22;499;42.648;23.270;2023-03-13T07:03:19;1.30;22.40
1021;DHT22;499;42.648;23.270;2023-03-13T07:05:47;1.30;22.50
1021;DHT22;499;42.648;23.270;2023-03-13T07:08:14;1.40;22.80
1021;DHT22;499;42.648;23.270;2023-03-13T07:10:41;1.50;22.50
1021;DHT22;499;42.648;23.270;2023-03-13T07:13:10;1.70;22.70
1021;DHT22;499;42.648;23.270;2023-03-13T07:15:38;1.90;22.80
1021;DHT22;499;42.648;23.270;2023-03-13T07:18:06;1.90;21.70
1021;DHT22;499;42.648;23.270;2023-03-13T07:20:33;1.80;21.20
1021;DHT22;499;42.648;23.270;2023-03-13T07:23:00;1.80;22.70
1021;DHT22;499;42.648;23.270;2023-03-13T07:25:28;2.00;22.80
1021;DHT22;499;42.648;23.270;2023-03-13T07:27:55;2.10;22.20
1021;DHT22;499;42.648;23.270;2023-03-13T07:30:22;2.10;21.50
1021;DHT22;499;42.648;23.270;2023-03-13T07:32:51;2.20;21.40
1021;DHT22;499;42.648;23.270;2023-03-13T07:35:18;2.30;21.30
1021;DHT22;499;42.648;23.270;2023-03-13T07:37:45;2.40;21.40
1021;DHT22;499;42.648;23.270;2023-03-13T07:40:12;2.40;20.90
1021;DHT22;499;42.648;23.270;2023-03-13T07:42:40;2.30;20.80
1021;DHT22;499;42.648;23.270;2023-03-13T07:45:08;2.30;20.80
1021;DHT22;499;42.648;23.270;2023-03-13T07:47:35;2.40;21.00
1021;DHT22;499;42.648;23.270;2023-03-13T07:50:04;2.40;21.00
1021;DHT22;499;42.648;23.270;2023-03-13T07:52:32;2.60;20.90
1021;DHT22;499;42.648;23.270;2023-03-13T07:55:00;2.70;21.50
1021;DHT22;499;42.648;23.270;2023-03-13T07:57:27;2.80;20.10
1021;DHT22;499;42.648;23.270;2023-03-13T07:59:54;2.90;21.30
1021;DHT22;499;42.648;23.270;2023-03-13T08:02:21;3.00;20.90
1021;DHT22;499;42.648;23.270;2023-03-13T08:04:51;3.10;20.60
1021;DHT22;499;42.648;23.270;2023-03-13T08:07:19;3.20;21.40
1021;DHT22;499;42.648;23.270;2023-03-13T08:09:46;3.20;19.80
1021;DHT22;499;42.648;23.270;2023-03-13T08:12:13;3.20;20.50
1021;DHT22;499;42.648;23.270;2023-03-13T08:14:40;3.30;20.90
1021;DHT22;499;42.648;23.270;2023-03-13T08:17:07;3.40;19.90
1021;DHT22;499;42.648;23.270;2023-03-13T08:19:34;3.30;19.30
1021;DHT22;499;42.648;23.270;2023-03-13T08:22:01;3.40;19.90
1021;DHT22;499;42.648;23.270;2023-03-13T08:24:30;3.40;19.30
1021;DHT22;499;42.648;23.270;2023-03-13T08:26:57;3.40;19.60
1021;DHT22;499;42.648;23.270;2023-03-13T08:29:24;3.50;20.00
1021;DHT22;499;42.648;23.270;2023-03-13T08:31:52;3.40;19.70
1021;DHT22;499;42.648;23.270;2023-03-13T08:34:19;3.40;19.90
1021;DHT22;499;42.648;23.270;2023-03-13T08:36:46;3.50;20.00
1021;DHT22;499;42.648;23.270;2023-03-13T08:39:15;3.60;19.50
1021;DHT22;499;42.648;23.270;2023-03-13T08:41:46;3.50;18.80
1021;DHT22;499;42.648;23.270;2023-03-13T08:44:14;3.60;19.00
1021;DHT22;499;42.648;23.270;2023-03-13T08:46:42;3.70;19.50
1021;DHT22;499;42.648;23.270;2023-03-13T08:49:10;3.80;19.20
1021;DHT22;499;42.648;23.270;2023-03-13T08:51:37;3.80;19.50
1021;DHT22;499;42.648;23.270;2023-03-13T08:54:05;4.00;18.20
1021;DHT22;499;42.648;23.270;2023-03-13T08:56:32;4.00;18.60
1021;DHT22;499;42.648;23.270;2023-03-13T08:59:03;4.00;18.10
1021;DHT22;499;42.648;23.270;2023-03-13T09:01:33;4.10;18.50
1021;DHT22;499;42.648;23.270;2023-03-13T09:04:00;4.10;18.70
1021;DHT22;499;42.648;23.270;2023-03-13T09:06:27;4.30;18.50
1021;DHT22;499;42.648;23.270;2023-03-13T09:08:55;4.40;18.00
1021;DHT22;499;42.648;23.270;2023-03-13T09:11:24;4.40;18.20
1021;DHT22;499;42.648;23.270;2023-03-13T09:13:53;4.60;18.30
1021;DHT22;499;42.648;23.270;2023-03-13T09:16:23;4.70;17.30
1021;DHT22;499;42.648;23.270;2023-03-13T09:18:53;4.70;17.90
1021;DHT22;499;42.648;23.270;2023-03-13T09:21:24;4.90;17.10
1021;DHT22;499;42.648;23.270;2023-03-13T09:23:51;5.00;18.20
1021;DHT22;499;42.648;23.270;2023-03-13T09:26:19;5.10;17.20
1021;DHT22;499;42.648;23.270;2023-03-13T09:28:47;5.00;17.00
1021;DHT22;499;42.648;23.270;2023-03-13T09:31:15;5.00;17.00
1021;DHT22;499;42.648;23.270;2023-03-13T09:33:45;5.00;17.00
1021;DHT22;499;42.648;23.270;2023-03-13T09:36:13;5.00;17.00
1021;DHT22;499;42.648;23.270;2023-03-13T09:38:41;4.80;16.90
1021;DHT22;499;42.648;23.270;2023-03-13T09:41:25;5.00;17.00
1021;DHT22;499;42.648;23.270;2023-03-13T09:44:01;5.20;17.10
1021;DHT22;499;42.648;23.270;2023-03-13T09:46:35;5.20;16.80
1021;DHT22;499;42.648;23.270;2023-03-13T09:49:14;5.40;16.40
1021;DHT22;499;42.648;23.270;2023-03-13T09:51:46;5.50;16.30
1021;DHT22;499;42.648;23.270;2023-03-13T09:54:22;5.40;15.80
1021;DHT22;499;42.648;23.270;2023-03-13T09:56:54;5.60;17.00
1021;DHT22;499;42.648;23.270;2023-03-13T09:59:39;5.60;15.90
1021;DHT22;499;42.648;23.270;2023-03-13T10:05:11;5.90;17.60
1021;DHT22;499;42.648;23.270;2023-03-13T10:07:39;6.00;16.60
1021;DHT22;499;42.648;23.270;2023-03-13T10:10:12;6.10;15.90
1021;DHT22;499;42.648;23.270;2023-03-13T10:12:43;6.40;16.60
1021;DHT22;499;42.648;23.270;2023-03-13T10:15:26;6.40;15.20
1021;DHT22;499;42.648;23.270;2023-03-13T10:17:55;6.40;14.70
1021;DHT22;499;42.648;23.270;2023-03-13T10:20:27;6.30;15.60
1021;DHT22;499;42.648;23.270;2023-03-13T10:22:58;6.40;15.10
1021;DHT22;499;42.648;23.270;2023-03-13T10:25:29;6.50;16.10
1021;DHT22;499;42.648;23.270;2023-03-13T10:27:58;6.60;14.80
1021;DHT22;499;42.648;23.270;2023-03-13T10:30:27;6.50;14.30
1021;DHT22;499;42.648;23.270;2023-03-13T10:32:58;6.70;14.60
1021;DHT22;499;42.648;23.270;2023-03-13T10:35:33;6.70;14.30
1021;DHT22;499;42.648;23.270;2023-03-13T10:38:03;6.90;14.60
1021;DHT22;499;42.648;23.270;2023-03-13T10:40:31;7.00;14.30
1021;DHT22;499;42.648;23.270;2023-03-13T10:43:03;7.10;14.00
1021;DHT22;499;42.648;23.270;2023-03-13T10:45:33;7.20;14.40
1021;DHT22;499;42.648;23.270;2023-03-13T10:48:03;7.30;14.30
1021;DHT22;499;42.648;23.270;2023-03-13T10:50:41;7.40;14.60
1021;DHT22;499;42.648;23.270;2023-03-13T10:53:23;7.20;13.80
1021;DHT22;499;42.648;23.270;2023-03-13T10:55:52;7.20;14.30
1021;DHT22;499;42.648;23.270;2023-03-13T10:58:22;7.20;14.10
1021;DHT22;499;42.648;23.270;2023-03-13T11:01:16;7.30;14.10
1021;DHT22;499;42.648;23.270;2023-03-13T11:03:46;7.30;14.50
1021;DHT22;499;42.648;23.270;2023-03-13T11:06:27;7.40;13.90
1021;DHT22;499;42.648;23.270;2023-03-13T11:09:10;7.60;14.70
1021;DHT22;499;42.648;23.270;2023-03-13T11:11:43;7.60;13.90
1021;DHT22;499;42.648;23.270;2023-03-13T11:14:16;7.80;13.50
1021;DHT22;499;42.648;23.270;2023-03-13T11:16:49;7.70;13.50
1021;DHT22;499;42.648;23.270;2023-03-13T11:19:33;8.00;13.90
1021;DHT22;499;42.648;23.270;2023-03-13T11:22:15;8.20;13.10
1021;DHT22;499;42.648;23.270;2023-03-13T11:24:50;8.20;13.00
1021;DHT22;499;42.648;23.270;2023-03-13T11:27:26;8.20;12.70
1021;DHT22;499;42.648;23.270;2023-03-13T11:30:04;8.20;13.20
1021;DHT22;499;42.648;23.270;2023-03-13T11:32:40;8.30;12.90
1021;DHT22;499;42.648;23.270;2023-03-13T11:35:19;8.40;13.40
1021;DHT22;499;42.648;23.270;2023-03-13T11:37:50;8.30;13.30
1021;DHT22;499;42.648;23.270;2023-03-13T11:40:22;8.30;12.40
1021;DHT22;499;42.648;23.270;2023-03-13T11:43:12;8.00;13.30
1021;DHT22;499;42.648;23.270;2023-03-13T11:45:53;7.90;13.40
1021;DHT22;499;42.648;23.270;2023-03-13T11:48:39;7.90;13.80
1021;DHT22;499;42.648;23.270;2023-03-13T11:51:16;7.90;14.70
1021;DHT22;499;42.648;23.270;2023-03-13T11:54:08;8.10;13.70
1021;DHT22;499;42.648;23.270;2023-03-13T11:56:44;8.20;12.70
1021;DHT22;499;42.648;23.270;2023-03-13T11:59:40;8.50;13.30
1021;DHT22;499;42.648;23.270;2023-03-13T12:02:19;8.60;12.00
1021;DHT22;499;42.648;23.270;2023-03-13T12:04:51;8.50;12.10
1021;DHT22;499;42.648;23.270;2023-03-13T12:07:25;8.50;11.50
1021;DHT22;499;42.648;23.270;2023-03-13T12:09:57;8.60;12.90
1021;DHT22;499;42.648;23.270;2023-03-13T12:12:36;8.60;12.10
1021;DHT22;499;42.648;23.270;2023-03-13T12:15:15;8.60;12.20
1021;DHT22;499;42.648;23.270;2023-03-13T12:17:48;8.50;12.70
1021;DHT22;499;42.648;23.270;2023-03-13T12:20:22;8.60;13.60
1021;DHT22;499;42.648;23.270;2023-03-13T12:22:56;8.70;13.50
1021;DHT22;499;42.648;23.270;2023-03-13T12:25:30;8.90;12.10
1021;DHT22;499;42.648;23.270;2023-03-13T12:28:10;8.90;13.20
1021;DHT22;499;42.648;23.270;2023-03-13T12:30:44;9.10;12.00
1021;DHT22;499;42.648;23.270;2023-03-13T12:33:20;9.30;12.20
1021;DHT22;499;42.648;23.270;2023-03-13T12:35:56;9.40;11.80
1021;DHT22;499;42.648;23.270;2023-03-13T12:38:28;9.50;11.90
1021;DHT22;499;42.648;23.270;2023-03-13T12:41:10;9.60;11.60
1021;DHT22;499;42.648;23.270;2023-03-13T12:43:39;9.50;10.80
1021;DHT22;499;42.648;23.270;2023-03-13T12:46:36;9.50;11.90
1021;DHT22;499;42.648;23.270;2023-03-13T12:49:25;9.30;11.20
1021;DHT22;499;42.648;23.270;2023-03-13T12:52:18;9.10;11.50
1021;DHT22;499;42.648;23.270;2023-03-13T12:55:17;9.30;11.80
1021;DHT22;499;42.648;23.270;2023-03-13T12:58:06;9.50;10.80
1021;DHT22;499;42.648;23.270;2023-03-13T13:00:38;9.70;9.90
1021;DHT22;499;42.648;23.270;2023-03-13T13:03:14;9.80;10.00
1021;DHT22;499;42.648;23.270;2023-03-13T13:06:08;9.70;10.20
1021;DHT22;499;42.648;23.270;2023-03-13T13:08:38;9.60;10.30
1021;DHT22;499;42.648;23.270;2023-03-13T13:14:56;9.40;10.40
1021;DHT22;499;42.648;23.270;2023-03-13T13:17:50;9.50;11.00
1021;DHT22;499;42.648;23.270;2023-03-13T13:20:44;9.40;11.10
1021;DHT22;499;42.648;23.270;2023-03-13T13:23:35;9.50;10.80
1021;DHT22;499;42.648;23.270;2023-03-13T13:32:33;9.70;10.30
1021;DHT22;499;42.648;23.270;2023-03-13T13:35:03;9.80;10.10
1021;DHT22;499;42.648;23.270;2023-03-13T13:37:32;9.50;9.20
1021;DHT22;499;42.648;23.270;2023-03-13T13:40:25;9.70;10.60
1021;DHT22;499;42.648;23.270;2023-03-13T13:42:54;9.70;9.70
1021;DHT22;499;42.648;23.270;2023-03-13T13:45:27;9.70;10.10
1021;DHT22;499;42.648;23.270;2023-03-13T13:48:30;9.70;9.70
1021;DHT22;499;42.648;23.270;2023-03-13T13:51:31;9.80;9.50
1021;DHT22;499;42.648;23.270;2023-03-13T13:54:00;9.80;9.40
1021;DHT22;499;42.648;23.270;2023-03-13T13:56:38;9.80;9.60
1021;DHT22;499;42.648;23.270;2023-03-13T14:02:16;9.80;9.70
1021;DHT22;499;42.648;23.270;2023-03-13T14:04:48;9.90;10.40
1021;DHT22;499;42.648;23.270;2023-03-13T14:07:18;9.90;10.80
1021;DHT22;499;42.648;23.270;2023-03-13T14:10:05;10.00;9.90
1021;DHT22;499;42.648;23.270;2023-03-13T14:12:34;10.00;10.30
1021;DHT22;499;42.648;23.270;2023-03-13T14:15:11;10.20;9.30
1021;DHT22;499;42.648;23.270;2023-03-13T14:17:40;10.20;9.00
1021;DHT22;499;42.648;23.270;2023-03-13T14:20:25;10.10;9.80
1021;DHT22;499;42.648;23.270;2023-03-13T14:22:54;10.10;9.00
1021;DHT22;499;42.648;23.270;2023-03-13T14:25:22;9.90;9.80
1021;DHT22;499;42.648;23.270;2023-03-13T14:27:51;9.90;10.30
1021;DHT22;499;42.648;23.270;2023-03-13T14:30:22;9.90;11.00
1021;DHT22;499;42.648;23.270;2023-03-13T14:32:50;10.00;10.40
1021;DHT22;499;42.648;23.270;2023-03-13T14:35:20;10.10;10.00
1021;DHT22;499;42.648;23.270;2023-03-13T14:37:50;10.20;9.10
1021;DHT22;499;42.648;23.270;2023-03-13T14:40:26;10.20;8.60
1021;DHT22;499;42.648;23.270;2023-03-13T14:42:55;10.20;9.20
1021;DHT22;499;42.648;23.270;2023-03-13T14:45:26;10.30;8.40
1021;DHT22;499;42.648;23.270;2023-03-13T14:47:54;10.20;8.60
1021;DHT22;499;42.648;23.270;2023-03-13T14:50:25;10.20;9.00
1021;DHT22;499;42.648;23.270;2023-03-13T14:52:56;10.20;9.30
1021;DHT22;499;42.648;23.270;2023-03-13T14:55:29;10.30;9.20
1021;DHT22;499;42.648;23.270;2023-03-13T14:57:59;10.30;9.00
1021;DHT22;499;42.648;23.270;2023-03-13T15:00:38;10.40;8.50
1021;DHT22;499;42.648;23.270;2023-03-13T15:03:18;10.40;8.50
1021;DHT22;499;42.648;23.270;2023-03-13T15:05:49;10.30;8.40
1021;DHT22;499;42.648;23.270;2023-03-13T15:08:17;10.30;8.50
1021;DHT22;499;42.648;23.270;2023-03-13T15:10:45;10.30;9.30
1021;DHT22;499;42.648;23.270;2023-03-13T15:13:15;10.20;11.60
1021;DHT22;499;42.648;23.270;2023-03-13T15:15:43;10.10;11.50
1021;DHT22;499;42.648;23.270;2023-03-13T15:18:17;9.90;12.20
1021;DHT22;499;42.648;23.270;2023-03-13T15:20:49;9.90;12.80
1021;DHT22;499;42.648;23.270;2023-03-13T15:23:17;9.70;13.80
1021;DHT22;499;42.648;23.270;2023-03-13T15:25:46;9.50;14.30
1021;DHT22;499;42.648;23.270;2023-03-13T15:28:14;9.40;14.70
1021;DHT22;499;42.648;23.270;2023-03-13T15:30:42;9.20;15.10
1021;DHT22;499;42.648;23.270;2023-03-13T15:33:13;9.00;15.60
1021;DHT22;499;42.648;23.270;2023-03-13T15:35:41;8.80;16.30
1021;DHT22;499;42.648;23.270;2023-03-13T15:38:13;8.50;16.60
1021;DHT22;499;42.648;23.270;2023-03-13T15:40:41;8.30;17.00
1021;DHT22;499;42.648;23.270;2023-03-13T15:43:09;8.10;17.60
1021;DHT22;499;42.648;23.270;2023-03-13T15:45:37;8.00;18.20
1021;DHT22;499;42.648;23.270;2023-03-13T15:48:11;7.90;18.80
1021;DHT22;499;42.648;23.270;2023-03-13T15:50:40;7.70;18.70
1021;DHT22;499;42.648;23.270;2023-03-13T15:53:16;7.60;18.70
1021;DHT22;499;42.648;23.270;2023-03-13T15:55:44;7.50;18.60
1021;DHT22;499;42.648;23.270;2023-03-13T15:58:11;7.40;18.80
1021;DHT22;499;42.648;23.270;2023-03-13T16:00:39;7.30;19.20
1021;DHT22;499;42.648;23.270;2023-03-13T16:03:11;7.10;19.50
1021;DHT22;499;42.648;23.270;2023-03-13T16:05:40;7.10;19.50
1021;DHT22;499;42.648;23.270;2023-03-13T16:08:13;7.00;19.70
1021;DHT22;499;42.648;23.270;2023-03-13T16:10:41;7.00;20.40
1021;DHT22;499;42.648;23.270;2023-03-13T16:13:09;7.00;20.60
1021;DHT22;499;42.648;23.270;2023-03-13T16:15:36;6.90;20.80
1021;DHT22;499;42.648;23.270;2023-03-13T16:18:04;6.90;20.90
1021;DHT22;499;42.648;23.270;2023-03-13T16:20:32;6.80;21.00
1021;DHT22;499;42.648;23.270;2023-03-13T16:22:59;6.70;21.00
1021;DHT22;499;42.648;23.270;2023-03-13T16:25:30;6.60;21.20
1021;DHT22;499;42.648;23.270;2023-03-13T16:27:57;6.40;21.30
1021;DHT22;499;42.648;23.270;2023-03-13T16:30:27;6.30;21.70
1021;DHT22;499;42.648;23.270;2023-03-13T16:32:55;6.20;21.70
1021;DHT22;499;42.648;23.270;2023-03-13T16:35:24;6.20;21.70
1021;DHT22;499;42.648;23.270;2023-03-13T16:37:51;6.10;20.90
1021;DHT22;499;42.648;23.270;2023-03-13T16:40:21;6.00;20.30
1021;DHT22;499;42.648;23.270;2023-03-13T16:42:51;5.80;19.20
1021;DHT22;499;42.648;23.270;2023-03-13T16:45:18;5.70;17.50
1021;DHT22;499;42.648;23.270;2023-03-13T16:47:46;5.60;16.90
1021;DHT22;499;42.648;23.270;2023-03-13T16:50:20;5.60;16.30
1021;DHT22;499;42.648;23.270;2023-03-13T16:52:47;5.40;16.60
1021;DHT22;499;42.648;23.270;2023-03-13T16:55:17;5.30;15.10